createdAt,value
2019-04-11T00:00:07.019Z,6.73
2019-04-11T00:02:33.070Z,9.53
2019-04-11T00:04:58.782Z,9.10
2019-04-11T00:07:24.867Z,8.60
2019-04-11T00:09:51.208Z,10.27
2019-04-11T00:12:16.730Z,9.13
2019-04-11T00:14:42.375Z,11.20
2019-04-11T00:17:07.908Z,9.73
2019-04-11T00:19:33.660Z,8.93
2019-04-11T00:21:59.462Z,8.97
2019-04-11T00:24:25.256Z,7.90
2019-04-11T00:26:50.774Z,8.50
2019-04-11T00:29:16.437Z,9.67
2019-04-11T00:31:41.800Z,9.03
2019-04-11T00:34:08.803Z,8.27
2019-04-11T00:36:34.670Z,8.40
2019-04-11T00:39:01.183Z,8.73
2019-04-11T00:41:28.004Z,6.77
2019-04-11T00:43:54.655Z,9.17
2019-04-11T00:46:20.426Z,5.50
2019-04-11T00:48:46.117Z,7.87
2019-04-11T00:51:12.005Z,8.67
2019-04-11T00:53:38.304Z,7.77
2019-04-11T00:56:04.472Z,6.97
2019-04-11T00:58:30.370Z,11.23
2019-04-11T01:00:56.087Z,9.50
2019-04-11T01:03:22.150Z,8.17
2019-04-11T01:05:48.154Z,8.13
2019-04-11T01:08:13.868Z,10.03
2019-04-11T01:10:39.839Z,9.50
2019-04-11T01:13:05.451Z,7.47
2019-04-11T01:15:31.412Z,7.03
2019-04-11T01:17:57.947Z,7.47
2019-04-11T01:20:23.812Z,9.93
2019-04-11T01:22:49.322Z,8.43
2019-04-11T01:25:15.300Z,8.80
2019-04-11T01:27:41.207Z,11.27
2019-04-11T01:30:11.716Z,6.77
2019-04-11T01:32:38.151Z,8.37
2019-04-11T01:35:04.791Z,8.17
2019-04-11T01:37:31.423Z,8.97
2019-04-11T01:39:59.487Z,13.47
2019-04-11T01:42:25.110Z,7.97
2019-04-11T01:44:50.579Z,8.47
2019-04-11T01:47:22.901Z,8.33
2019-04-11T01:49:48.412Z,8.33
2019-04-11T01:52:14.185Z,9.80
2019-04-11T01:54:39.646Z,8.33
2019-04-11T01:57:05.444Z,8.67
2019-04-11T01:59:31.252Z,9.13
2019-04-11T02:02:19.164Z,8.63
2019-04-11T02:05:04.802Z,9.63
2019-04-11T02:07:30.994Z,8.50
2019-04-11T02:09:56.780Z,9.50
2019-04-11T02:12:22.548Z,8.20
2019-04-11T02:14:48.055Z,7.00
2019-04-11T02:17:14.651Z,8.97
2019-04-11T02:19:40.565Z,8.60
2019-04-11T02:22:24.893Z,8.23
2019-04-11T02:24:56.329Z,7.07
2019-04-11T02:27:25.983Z,10.40
2019-04-11T02:29:52.940Z,10.13
2019-04-11T02:32:22.549Z,10.23
2019-04-11T02:34:48.069Z,9.80
2019-04-11T02:37:13.513Z,14.77
2019-04-11T02:39:40.941Z,10.20
2019-04-11T02:42:07.371Z,11.67
2019-04-11T02:44:53.204Z,10.03
2019-04-11T02:47:08.363Z,9.33
2019-04-11T02:49:28.588Z,12.03
2019-04-11T02:51:55.931Z,10.37
2019-04-11T02:54:24.449Z,9.07
2019-04-11T02:56:52.337Z,11.67
2019-04-11T02:59:17.664Z,9.17
2019-04-11T03:01:43.996Z,10.40
2019-04-11T03:04:10.494Z,8.80
2019-04-11T03:06:36.325Z,11.07
2019-04-11T03:09:02.512Z,10.13
2019-04-11T03:11:30.214Z,10.13
2019-04-11T03:13:58.404Z,9.10
2019-04-11T03:16:41.289Z,8.30
2019-04-11T03:19:05.253Z,8.90
2019-04-11T03:21:22.077Z,10.00
2019-04-11T03:23:49.194Z,10.40
2019-04-11T03:26:16.583Z,10.37
2019-04-11T03:28:46.643Z,12.07
2019-04-11T03:31:47.366Z,11.10
2019-04-11T03:37:00.572Z,9.17
2019-04-11T03:38:53.401Z,10.30
2019-04-11T03:41:15.875Z,10.37
2019-04-11T03:43:37.693Z,9.70
2019-04-11T03:46:17.166Z,11.07
2019-04-11T03:48:33.448Z,9.63
2019-04-11T03:50:52.421Z,11.77
2019-04-11T03:53:17.751Z,15.13
2019-04-11T03:55:45.400Z,9.90
2019-04-11T03:58:13.101Z,8.73
2019-04-11T04:00:43.021Z,10.07
2019-04-11T04:03:08.953Z,10.33
2019-04-11T04:05:36.749Z,11.40
2019-04-11T04:08:03.970Z,9.03
2019-04-11T04:10:31.807Z,11.30
2019-04-11T04:12:58.409Z,11.03
2019-04-11T04:16:04.088Z,12.10
2019-04-11T04:18:38.118Z,9.27
2019-04-11T04:21:28.786Z,9.57
2019-04-11T04:24:01.343Z,12.37
2019-04-11T04:26:26.942Z,9.17
2019-04-11T04:28:53.455Z,11.10
2019-04-11T04:31:19.168Z,11.83
2019-04-11T04:33:45.585Z,12.50
2019-04-11T04:36:13.884Z,11.60
2019-04-11T04:38:41.373Z,14.30
2019-04-11T04:41:21.085Z,10.80
2019-04-11T04:43:36.669Z,10.40
2019-04-11T04:46:20.359Z,12.00
2019-04-11T04:48:30.142Z,11.13
2019-04-11T04:50:57.639Z,11.20
2019-04-11T04:53:27.683Z,9.87
2019-04-11T04:55:52.809Z,13.10
2019-04-11T04:58:20.219Z,11.37
2019-04-11T05:00:45.684Z,11.77
2019-04-11T05:03:11.199Z,15.37
2019-04-11T05:05:38.268Z,10.53
2019-04-11T05:08:05.959Z,12.73
2019-04-11T05:10:32.766Z,14.43
2019-04-11T05:12:59.848Z,13.23
2019-04-11T05:15:26.143Z,14.20
2019-04-11T05:17:53.314Z,13.70
2019-04-11T05:20:19.768Z,18.37
2019-04-11T05:22:45.400Z,13.35
2019-04-11T05:25:11.204Z,15.13
2019-04-11T05:27:37.789Z,10.80
2019-04-11T05:30:04.993Z,14.23
2019-04-11T05:32:31.626Z,13.83
2019-04-11T05:34:57.126Z,11.13
2019-04-11T05:37:24.547Z,13.33
2019-04-11T05:39:50.546Z,14.13
2019-04-11T05:42:19.382Z,16.10
2019-04-11T05:44:43.465Z,11.27
2019-04-11T05:47:09.182Z,15.57
2019-04-11T05:49:46.695Z,17.07
2019-04-11T05:52:12.593Z,13.50
2019-04-11T05:54:49.042Z,12.83
2019-04-11T05:57:15.298Z,12.33
2019-04-11T05:59:43.262Z,12.87
2019-04-11T06:02:30.991Z,13.77
2019-04-11T06:05:03.011Z,12.37
2019-04-11T06:07:34.904Z,15.37
2019-04-11T06:10:08.586Z,14.80
2019-04-11T06:12:43.528Z,15.27
2019-04-11T06:15:16.110Z,12.43
2019-04-11T06:17:42.731Z,13.17
2019-04-11T06:20:39.761Z,15.20
2019-04-11T06:23:17.120Z,12.87
2019-04-11T06:25:55.576Z,13.37
2019-04-11T06:28:24.385Z,18.50
2019-04-11T06:31:18.148Z,11.33
2019-04-11T06:33:56.920Z,12.57
2019-04-11T06:36:45.286Z,14.40
2019-04-11T06:39:23.023Z,13.40
2019-04-11T06:42:24.552Z,16.10
2019-04-11T06:45:17.677Z,13.10
2019-04-11T06:48:02.063Z,17.80
2019-04-11T06:50:41.710Z,13.00
2019-04-11T06:53:08.884Z,11.93
2019-04-11T06:56:00.596Z,14.90
2019-04-11T06:58:31.818Z,14.73
2019-04-11T07:01:01.636Z,15.47
2019-04-11T07:03:30.873Z,16.57
2019-04-11T07:05:59.393Z,17.20
2019-04-11T07:08:28.270Z,12.20
2019-04-11T07:10:58.925Z,15.27
2019-04-11T07:13:47.651Z,13.00
2019-04-11T07:16:13.967Z,16.27
2019-04-11T07:18:59.208Z,15.27
2019-04-11T07:21:29.378Z,14.87
2019-04-11T07:24:12.368Z,14.30
2019-04-11T07:26:47.912Z,14.53
2019-04-11T07:29:33.574Z,18.33
2019-04-11T07:32:16.299Z,15.90
2019-04-11T07:35:17.377Z,15.43
2019-04-11T07:37:44.773Z,16.57
2019-04-11T07:40:33.302Z,21.07
2019-04-11T07:43:13.561Z,17.27
2019-04-11T07:45:47.085Z,17.00
2019-04-11T07:48:17.200Z,24.23
2019-04-11T07:50:44.386Z,16.07
2019-04-11T07:53:10.922Z,16.63
2019-04-11T07:55:36.579Z,18.20
2019-04-11T07:58:21.858Z,19.17
2019-04-11T08:01:01.514Z,15.50
2019-04-11T08:03:51.611Z,20.17
2019-04-11T08:06:54.656Z,17.77
2019-04-11T08:09:39.902Z,17.97
2019-04-11T08:12:17.833Z,15.40
2019-04-11T08:15:01.499Z,18.67
2019-04-11T08:17:37.047Z,21.43
2019-04-11T08:20:15.350Z,16.10
2019-04-11T08:22:59.688Z,19.10
2019-04-11T08:25:42.223Z,18.93
2019-04-11T08:28:13.613Z,18.43
2019-04-11T08:30:43.319Z,20.87
2019-04-11T08:33:09.158Z,20.57
2019-04-11T08:35:55.188Z,13.53
2019-04-11T08:38:38.734Z,16.90
2019-04-11T08:41:27.365Z,17.37
2019-04-11T08:43:53.229Z,18.17
2019-04-11T08:46:22.630Z,13.63
2019-04-11T08:48:53.045Z,17.03
2019-04-11T08:51:19.183Z,16.43
2019-04-11T08:54:07.031Z,18.67
2019-04-11T08:56:32.535Z,16.20
2019-04-11T08:59:46.121Z,17.73
2019-04-11T09:02:14.345Z,17.60
2019-04-11T09:05:08.984Z,14.83
2019-04-11T09:07:33.805Z,18.97
2019-04-11T09:10:17.935Z,21.33
2019-04-11T09:12:50.965Z,17.23
2019-04-11T09:15:35.476Z,15.20
2019-04-11T09:18:10.385Z,13.50
2019-04-11T09:20:53.927Z,17.37
2019-04-11T09:23:23.810Z,13.60
2019-04-11T09:26:07.600Z,13.00
2019-04-11T09:28:39.770Z,12.67
2019-04-11T09:31:43.754Z,13.43
2019-04-11T09:34:25.976Z,12.77
2019-04-11T09:37:09.482Z,11.17
2019-04-11T09:39:46.123Z,14.00
2019-04-11T09:42:39.659Z,13.50
2019-04-11T09:45:27.988Z,13.10
2019-04-11T09:48:14.948Z,10.03
2019-04-11T09:51:07.350Z,12.90
2019-04-11T09:53:34.493Z,15.43
2019-04-11T09:56:18.835Z,10.63
2019-04-11T09:58:45.354Z,15.30
2019-04-11T10:01:30.726Z,11.93
2019-04-11T10:03:57.259Z,13.60
2019-04-11T10:06:40.993Z,13.07
2019-04-11T10:09:11.494Z,13.27
2019-04-11T10:11:54.888Z,12.37
2019-04-11T10:14:21.729Z,14.40
2019-04-11T10:17:05.025Z,12.97
2019-04-11T10:19:52.518Z,11.50
2019-04-11T10:22:49.196Z,12.27
2019-04-11T10:25:21.215Z,12.77
2019-04-11T10:28:21.721Z,12.68
2019-04-11T10:31:22.332Z,12.20
2019-04-11T10:34:06.121Z,9.37
2019-04-11T10:36:41.550Z,13.97
2019-04-11T10:39:41.727Z,12.07
2019-04-11T10:42:10.536Z,15.40
2019-04-11T10:44:43.857Z,10.33
2019-04-11T10:47:14.550Z,10.63
2019-04-11T10:50:09.107Z,10.07
2019-04-11T10:52:38.440Z,12.07
2019-04-11T10:55:06.935Z,14.28
2019-04-11T10:57:36.138Z,11.77
2019-04-11T11:00:03.224Z,11.17
2019-04-11T11:02:41.813Z,12.27
2019-04-11T11:05:09.317Z,13.93
2019-04-11T11:07:35.043Z,10.80
2019-04-11T11:10:09.299Z,11.57
2019-04-11T11:12:59.457Z,11.97
2019-04-11T11:15:31.554Z,12.20
2019-04-11T11:18:48.215Z,12.30
2019-04-11T11:21:03.821Z,10.63
2019-04-11T11:23:49.126Z,13.20
2019-04-11T11:26:19.759Z,11.77
2019-04-11T11:28:48.856Z,13.85
2019-04-11T11:31:34.452Z,15.27
2019-04-11T11:33:59.904Z,12.07
2019-04-11T11:36:55.186Z,16.17
2019-04-11T11:39:33.389Z,11.23
2019-04-11T11:42:28.261Z,13.40
2019-04-11T11:45:02.401Z,11.40
2019-04-11T11:47:44.902Z,12.13
2019-04-11T11:50:18.231Z,13.50
2019-04-11T11:53:08.199Z,11.27
2019-04-11T11:55:35.602Z,11.00
2019-04-11T11:58:19.931Z,10.13
2019-04-11T12:00:48.049Z,11.03
2019-04-11T12:03:46.719Z,11.23
2019-04-11T12:06:19.781Z,12.05
2019-04-11T12:09:09.915Z,13.13
2019-04-11T12:12:51.847Z,13.47
2019-04-11T12:19:18.053Z,11.65
2019-04-11T12:21:55.862Z,12.83
2019-04-11T12:24:34.415Z,13.28
2019-04-11T12:27:27.130Z,12.67
2019-04-11T12:30:23.500Z,11.50
2019-04-11T12:33:07.175Z,11.00
2019-04-11T12:35:57.885Z,13.63
2019-04-11T12:38:34.679Z,15.50
2019-04-11T12:41:13.324Z,12.73
2019-04-11T12:43:58.060Z,12.98
2019-04-11T12:46:54.152Z,11.73
2019-04-11T12:49:30.965Z,10.70
2019-04-11T12:52:14.660Z,11.25
2019-04-11T12:54:41.404Z,14.07
2019-04-11T12:57:15.337Z,15.93
2019-04-11T12:59:41.765Z,12.55
2019-04-11T13:02:33.710Z,14.57
2019-04-11T13:05:00.169Z,15.98
2019-04-11T13:07:45.803Z,14.20
2019-04-11T13:10:25.351Z,14.80
2019-04-11T13:13:19.410Z,16.73
2019-04-11T13:15:48.267Z,13.37
2019-04-11T13:18:23.555Z,14.13
2019-04-11T13:20:56.806Z,12.87
2019-04-11T13:23:40.452Z,15.80
2019-04-11T13:26:43.300Z,15.40
2019-04-11T13:29:24.242Z,15.30
2019-04-11T13:32:07.756Z,12.88
2019-04-11T13:34:34.329Z,13.13
2019-04-11T13:37:17.991Z,17.75
2019-04-11T13:40:07.888Z,15.00
2019-04-11T13:42:51.903Z,16.40
2019-04-11T13:45:30.264Z,17.37
2019-04-11T13:48:49.646Z,14.33
2019-04-11T13:51:24.853Z,14.33
2019-04-11T13:54:08.579Z,15.37
2019-04-11T13:56:55.129Z,14.05
2019-04-11T13:59:40.156Z,13.60
2019-04-11T14:02:15.709Z,16.40
2019-04-11T14:04:46.142Z,15.80
2019-04-11T14:07:23.649Z,13.80
2019-04-11T14:09:53.242Z,11.70
2019-04-11T14:12:21.972Z,13.37
2019-04-11T14:15:11.286Z,14.28
2019-04-11T14:17:53.824Z,16.17
2019-04-11T14:21:21.013Z,13.10
2019-04-11T14:23:57.268Z,13.85
2019-04-11T14:26:40.193Z,20.50
2019-04-11T14:29:39.479Z,17.82
2019-04-11T14:32:44.046Z,15.35
2019-04-11T14:35:42.377Z,16.40
2019-04-11T14:42:21.096Z,13.43
2019-04-11T14:44:47.073Z,15.23
2019-04-11T14:47:40.547Z,16.93
2019-04-11T14:50:06.095Z,17.35
2019-04-11T14:52:53.313Z,13.10
2019-04-11T14:55:19.676Z,14.03
2019-04-11T14:57:55.452Z,13.03
2019-04-11T15:00:34.252Z,15.53
2019-04-11T15:03:24.482Z,16.43
2019-04-11T15:06:07.382Z,16.47
2019-04-11T15:08:50.443Z,12.60
2019-04-11T15:11:47.857Z,15.07
2019-04-11T15:14:20.467Z,11.63
2019-04-11T15:17:24.288Z,13.48
2019-04-11T15:19:54.994Z,16.05
2019-04-11T15:22:39.283Z,13.35
2019-04-11T15:25:21.483Z,16.42
2019-04-11T15:28:01.900Z,13.67
2019-04-11T15:30:28.050Z,13.32
2019-04-11T15:33:24.299Z,14.83
2019-04-11T15:35:50.057Z,15.18
2019-04-11T15:38:36.742Z,12.53
2019-04-11T15:41:02.347Z,14.43
2019-04-11T15:43:53.055Z,13.62
2019-04-11T15:46:35.330Z,15.25
2019-04-11T15:49:21.105Z,14.47
2019-04-11T15:51:58.977Z,13.97
2019-04-11T15:54:46.448Z,16.00
2019-04-11T15:57:29.475Z,17.98
2019-04-11T16:00:14.296Z,14.70
2019-04-11T16:03:01.626Z,14.78
2019-04-11T16:05:42.829Z,15.08
2019-04-11T16:08:22.794Z,14.20
2019-04-11T16:11:13.375Z,13.38
2019-04-11T16:13:45.365Z,13.80
2019-04-11T16:16:12.211Z,11.53
2019-04-11T16:19:06.118Z,13.40
2019-04-11T16:21:54.889Z,15.33
2019-04-11T16:24:27.600Z,12.93
2019-04-11T16:27:03.047Z,13.10
2019-04-11T16:29:32.972Z,14.00
2019-04-11T16:32:00.725Z,12.33
2019-04-11T16:34:47.875Z,12.53
2019-04-11T16:37:06.461Z,13.47
2019-04-11T16:39:52.061Z,13.63
2019-04-11T16:42:21.858Z,14.53
2019-04-11T16:45:06.056Z,11.83
2019-04-11T16:48:00.207Z,16.03
2019-04-11T16:50:25.726Z,17.67
2019-04-11T16:52:51.088Z,15.27
2019-04-11T16:55:21.008Z,14.57
2019-04-11T16:57:46.447Z,13.70
2019-04-11T17:00:12.979Z,14.60
2019-04-11T17:02:38.423Z,15.13
2019-04-11T17:05:04.018Z,13.25
2019-04-11T17:07:42.859Z,15.00
2019-04-11T17:10:08.841Z,15.00
2019-04-11T17:12:34.119Z,16.15
2019-04-11T17:15:01.690Z,14.33
2019-04-11T17:17:31.009Z,13.20
2019-04-11T17:19:56.840Z,13.37
2019-04-11T17:22:22.838Z,14.97
2019-04-11T17:24:48.863Z,14.67
2019-04-11T17:27:14.328Z,17.73
2019-04-11T17:29:40.562Z,17.45
2019-04-11T17:32:06.297Z,14.38
2019-04-11T17:34:32.941Z,13.53
2019-04-11T17:37:02.543Z,14.23
2019-04-11T17:39:27.189Z,13.83
2019-04-11T17:41:53.145Z,14.73
2019-04-11T17:44:20.922Z,14.67
2019-04-11T17:46:56.428Z,13.57
2019-04-11T17:49:21.193Z,17.37
2019-04-11T17:51:55.784Z,16.45
2019-04-11T17:54:14.506Z,14.63
2019-04-11T17:56:40.024Z,18.23
2019-04-11T17:59:05.603Z,12.17
2019-04-11T18:01:33.414Z,15.13
2019-04-11T18:03:59.243Z,13.87
2019-04-11T18:06:24.986Z,12.07
2019-04-11T18:08:51.567Z,12.83
2019-04-11T18:11:18.387Z,13.07
2019-04-11T18:13:44.216Z,12.83
2019-04-11T18:16:09.977Z,14.97
2019-04-11T18:18:35.899Z,11.50
2019-04-11T18:21:01.629Z,16.97
2019-04-11T18:23:27.394Z,15.23
2019-04-11T18:25:53.137Z,13.50
2019-04-11T18:28:21.689Z,14.77
2019-04-11T18:30:47.054Z,10.73
2019-04-11T18:33:13.021Z,16.17
2019-04-11T18:35:39.279Z,13.13
2019-04-11T18:38:05.207Z,13.60
2019-04-11T18:40:31.342Z,11.50
2019-04-11T18:42:57.125Z,12.27
2019-04-11T18:45:22.951Z,12.77
2019-04-11T18:47:48.793Z,13.93
2019-04-11T18:50:14.998Z,12.30
2019-04-11T18:52:40.842Z,10.77
2019-04-11T18:55:08.819Z,11.60
2019-04-11T18:57:34.761Z,12.10
2019-04-11T19:00:02.385Z,10.60
2019-04-11T19:02:28.832Z,10.93
2019-04-11T19:04:54.560Z,11.77
2019-04-11T19:07:27.625Z,10.87
2019-04-11T19:09:47.742Z,12.20
2019-04-11T19:12:15.888Z,11.13
2019-04-11T19:14:43.846Z,10.60
2019-04-11T19:17:09.064Z,14.00
2019-04-11T19:19:34.839Z,11.70
2019-04-11T19:22:01.007Z,13.37
2019-04-11T19:24:35.496Z,10.63
2019-04-11T19:26:57.090Z,12.00
2019-04-11T19:29:25.007Z,10.73
2019-04-11T19:31:50.623Z,12.07
2019-04-11T19:34:16.757Z,11.10
2019-04-11T19:36:43.095Z,12.77
2019-04-11T19:39:13.659Z,12.30
2019-04-11T19:41:38.498Z,12.83
2019-04-11T19:44:04.608Z,11.83
2019-04-11T19:46:30.364Z,11.53
2019-04-11T19:48:59.308Z,13.23
2019-04-11T19:51:23.545Z,12.53
2019-04-11T19:53:49.725Z,13.67
2019-04-11T19:56:20.426Z,9.63
2019-04-11T19:58:46.635Z,13.33
2019-04-11T20:01:12.462Z,11.40
2019-04-11T20:03:38.293Z,9.90
2019-04-11T20:06:04.154Z,10.07
2019-04-11T20:08:35.926Z,13.17
2019-04-11T20:11:03.114Z,12.63
2019-04-11T20:13:31.918Z,9.43
2019-04-11T20:15:56.403Z,10.33
2019-04-11T20:18:23.186Z,10.43
2019-04-11T20:20:52.131Z,9.23
2019-04-11T20:23:16.994Z,10.93
2019-04-11T20:25:45.731Z,10.77
2019-04-11T20:28:11.340Z,8.93
2019-04-11T20:30:37.100Z,10.00
2019-04-11T20:33:03.747Z,9.47
2019-04-11T20:35:29.666Z,10.17
2019-04-11T20:37:55.710Z,10.33
2019-04-11T20:40:23.315Z,14.93
2019-04-11T20:43:17.315Z,9.53
2019-04-11T20:45:43.787Z,10.87
2019-04-11T20:48:09.830Z,10.70
2019-04-11T20:50:35.766Z,12.00
2019-04-11T20:53:12.081Z,10.97
2019-04-11T20:55:29.147Z,10.57
2019-04-11T20:57:54.828Z,11.30
2019-04-11T21:00:20.601Z,10.70
2019-04-11T21:02:46.519Z,7.90
2019-04-11T21:05:12.137Z,9.37
2019-04-11T21:07:39.185Z,10.27
2019-04-11T21:10:05.203Z,9.53
2019-04-11T21:12:30.721Z,13.77
2019-04-11T21:14:56.343Z,11.40
2019-04-11T21:17:21.815Z,8.73
2019-04-11T21:19:47.138Z,9.30
2019-04-11T21:22:12.687Z,12.57
2019-04-11T21:24:38.144Z,10.40
2019-04-11T21:27:03.704Z,10.27
2019-04-11T21:29:30.229Z,7.30
2019-04-11T21:31:56.137Z,9.63
2019-04-11T21:34:21.591Z,8.73
2019-04-11T21:36:47.078Z,11.50
2019-04-11T21:39:12.570Z,9.53
2019-04-11T21:41:38.195Z,10.57
2019-04-11T21:44:06.084Z,9.87
2019-04-11T21:46:31.706Z,9.23
2019-04-11T21:48:57.121Z,8.73
2019-04-11T21:51:22.771Z,8.70
2019-04-11T21:53:48.219Z,10.43
2019-04-11T21:56:16.019Z,9.83
2019-04-11T21:58:41.223Z,11.10
2019-04-11T22:01:14.279Z,9.53
2019-04-11T22:03:40.114Z,9.90
2019-04-11T22:06:05.765Z,10.23
2019-04-11T22:08:31.932Z,10.90
2019-04-11T22:10:58.685Z,8.40
2019-04-11T22:13:24.211Z,9.17
2019-04-11T22:15:49.697Z,8.90
2019-04-11T22:18:16.743Z,10.43
2019-04-11T22:20:42.466Z,12.77
2019-04-11T22:23:07.934Z,9.20
2019-04-11T22:25:33.328Z,10.67
2019-04-11T22:27:58.857Z,11.57
2019-04-11T22:30:25.308Z,12.70
2019-04-11T22:33:16.636Z,9.93
2019-04-11T22:35:42.245Z,10.40
2019-04-11T22:38:07.621Z,9.93
2019-04-11T22:40:33.190Z,9.40
2019-04-11T22:42:58.892Z,10.87
2019-04-11T22:45:24.363Z,10.87
2019-04-11T22:47:50.056Z,12.00
2019-04-11T22:50:15.527Z,13.07
2019-04-11T22:52:42.233Z,10.60
2019-04-11T22:55:11.015Z,9.80
2019-04-11T22:57:35.566Z,13.13
2019-04-11T23:00:01.004Z,10.97
2019-04-11T23:02:41.317Z,12.67
2019-04-11T23:05:06.801Z,12.10
2019-04-11T23:07:32.331Z,13.27
2019-04-11T23:09:57.800Z,10.80
2019-04-11T23:12:23.156Z,14.63
2019-04-11T23:14:48.873Z,9.13
2019-04-11T23:17:14.813Z,12.27
2019-04-11T23:19:41.815Z,9.80
2019-04-11T23:22:07.370Z,11.53
2019-04-11T23:24:32.870Z,8.93
2019-04-11T23:26:58.316Z,11.40
2019-04-11T23:29:23.683Z,13.80
2019-04-11T23:31:50.858Z,13.17
2019-04-11T23:34:16.215Z,11.63
2019-04-11T23:36:41.677Z,10.17
2019-04-11T23:39:08.282Z,15.00
2019-04-11T23:41:34.073Z,12.83
2019-04-11T23:43:59.508Z,13.10
2019-04-11T23:46:25.419Z,14.43
2019-04-11T23:48:54.729Z,15.83
2019-04-11T23:51:16.778Z,13.97
2019-04-11T23:53:42.103Z,11.37
2019-04-11T23:56:07.519Z,12.20
2019-04-11T23:58:32.947Z,11.53
